Time;durP1;ratioP1;P1;durP2;ratioP2;P2;SDS_P1;SDS_P2;PMS_P1;PMS_P2;Temp;Humidity;BMP_temperature;BMP_pressure;BME280_temperature;BME280_humidity;BME280_pressure;Samples;Min_cycle;Max_cycle;Signal;HPM_P1;HPM_P2
2023/04/29 00:00:10;;;;;;;4.45;2.55;;;13.30;99.90;;;;;;4982569;28;20505;-85
2023/04/29 00:02:36;;;;;;;2.70;1.85;;;13.40;99.90;;;;;;5021140;28;20061;-83
2023/04/29 00:05:03;;;;;;;4.45;2.47;;;13.40;99.90;;;;;;4989730;28;20066;-83
2023/04/29 00:07:32;;;;;;;4.70;2.08;;;13.40;99.90;;;;;;4999907;28;20033;-82
2023/04/29 00:09:58;;;;;;;2.58;1.83;;;13.50;99.90;;;;;;4995882;28;20107;-83
2023/04/29 00:12:24;;;;;;;5.07;2.75;;;13.50;99.90;;;;;;5002338;28;20150;-83
2023/04/29 00:14:50;;;;;;;5.53;2.97;;;13.50;99.90;;;;;;4999924;28;20494;-83
2023/04/29 00:17:16;;;;;;;2.63;1.92;;;13.40;99.90;;;;;;4992663;28;20081;-83
2023/04/29 00:19:42;;;;;;;4.45;2.50;;;13.40;99.90;;;;;;4994484;28;20061;-83
2023/04/29 00:22:08;;;;;;;5.75;2.40;;;13.40;99.90;;;;;;5027491;28;20038;-83
2023/04/29 00:24:33;;;;;;;4.85;2.55;;;13.40;99.90;;;;;;5001760;28;20454;-83
2023/04/29 00:27:01;;;;;;;3.22;1.90;;;13.40;99.90;;;;;;4991347;28;20046;-83
2023/04/29 00:29:27;;;;;;;3.97;2.42;;;13.40;99.90;;;;;;4994642;28;20042;-83
2023/04/29 00:31:53;;;;;;;4.43;2.58;;;13.50;99.90;;;;;;4993772;28;20161;-83
2023/04/29 00:34:19;;;;;;;4.20;2.80;;;13.40;99.90;;;;;;5023646;28;20117;-83
2023/04/29 00:36:44;;;;;;;4.10;2.85;;;13.40;99.90;;;;;;5005200;28;20061;-83
2023/04/29 00:39:12;;;;;;;3.92;2.33;;;13.40;99.90;;;;;;5010731;28;20038;-83
2023/04/29 00:41:38;;;;;;;7.43;2.70;;;13.30;99.90;;;;;;5003932;28;20044;-82
2023/04/29 00:44:04;;;;;;;6.38;2.67;;;13.30;99.90;;;;;;5027086;28;20030;-82
2023/04/29 00:46:30;;;;;;;3.15;2.25;;;13.30;99.90;;;;;;5001534;28;20449;-82
2023/04/29 00:48:56;;;;;;;4.88;2.67;;;13.30;99.90;;;;;;5012061;28;20644;-83
2023/04/29 00:51:22;;;;;;;4.75;2.38;;;13.30;99.90;;;;;;5001087;28;20056;-83
2023/04/29 00:53:48;;;;;;;7.05;2.47;;;13.30;99.90;;;;;;5012016;28;20116;-83
2023/04/29 00:56:14;;;;;;;2.60;1.65;;;13.20;99.90;;;;;;5016152;28;20423;-84
2023/04/29 00:58:48;;;;;;;6.07;2.45;;;13.20;99.90;;;;;;5027139;28;20041;-83
2023/04/29 01:01:15;;;;;;;4.43;2.10;;;13.20;99.90;;;;;;5000846;28;20032;-82
2023/04/29 01:03:41;;;;;;;4.05;2.42;;;13.10;99.90;;;;;;5026915;28;20076;-83
2023/04/29 01:07:11;;;;;;;3.15;1.92;;;13.10;99.90;;;;;;4999852;28;20113;-84
2023/04/29 01:10:01;;;;;;;3.25;2.03;;;13.00;99.90;;;;;;4941244;28;20082;-83
2023/04/29 01:13:06;;;;;;;4.88;2.15;;;13.00;99.90;;;;;;5018699;28;20064;-83
2023/04/29 01:15:57;;;;;;;3.70;2.40;;;13.00;99.90;;;;;;5014733;28;20108;-83
2023/04/29 01:18:45;;;;;;;3.90;2.47;;;13.00;99.90;;;;;;5013410;28;20030;-83
2023/04/29 01:21:10;;;;;;;5.35;2.65;;;12.90;99.90;;;;;;4999125;28;20033;-83
2023/04/29 01:23:36;;;;;;;4.95;2.33;;;12.70;99.90;;;;;;5006730;28;20038;-83
2023/04/29 01:26:02;;;;;;;5.25;2.63;;;12.70;99.90;;;;;;4997007;28;20037;-83
2023/04/29 01:28:37;;;;;;;2.67;1.73;;;12.60;99.90;;;;;;5011146;28;20093;-83
2023/04/29 01:31:14;;;;;;;3.42;2.00;;;12.50;99.90;;;;;;5000916;28;20046;-83
2023/04/29 01:33:49;;;;;;;5.15;2.30;;;12.50;99.90;;;;;;5011237;28;20034;-83
2023/04/29 01:36:52;;;;;;;4.25;1.88;;;12.30;99.90;;;;;;5000341;28;20061;-83
2023/04/29 01:39:30;;;;;;;2.47;1.67;;;12.20;99.90;;;;;;4973666;28;20498;-83
2023/04/29 01:42:17;;;;;;;3.05;1.63;;;12.20;99.90;;;;;;4999844;28;20638;-83
2023/04/29 01:44:43;;;;;;;2.80;1.73;;;12.10;99.90;;;;;;5001063;28;20085;-84
2023/04/29 01:47:13;;;;;;;3.42;2.13;;;12.00;99.90;;;;;;5017770;28;20109;-83
2023/04/29 01:49:40;;;;;;;2.40;1.73;;;12.00;99.90;;;;;;5000297;28;20049;-83
2023/04/29 01:52:06;;;;;;;3.60;1.77;;;12.00;99.90;;;;;;5009926;28;20101;-83
2023/04/29 01:54:35;;;;;;;5.38;2.67;;;12.10;99.90;;;;;;5003512;28;20027;-83
2023/04/29 01:57:02;;;;;;;8.43;2.22;;;12.20;99.90;;;;;;5023533;28;20454;-83
2023/04/29 01:59:27;;;;;;;9.27;2.08;;;12.30;99.90;;;;;;5019876;28;20151;-84
2023/04/29 02:01:55;;;;;;;10.80;2.25;;;12.40;99.90;;;;;;5006093;28;20488;-83
2023/04/29 02:04:21;;;;;;;4.35;2.60;;;12.50;99.90;;;;;;5006185;28;20026;-83
2023/04/29 02:06:46;;;;;;;2.88;1.98;;;12.50;99.90;;;;;;5004695;28;20096;-83
2023/04/29 02:09:12;;;;;;;2.50;2.10;;;12.50;99.90;;;;;;5008563;28;20030;-83
2023/04/29 02:11:38;;;;;;;4.88;2.15;;;12.60;99.90;;;;;;5002729;28;20109;-84
2023/04/29 02:14:04;;;;;;;3.60;1.95;;;12.60;99.90;;;;;;5010274;28;20026;-84
2023/04/29 02:16:29;;;;;;;2.50;1.70;;;12.60;99.90;;;;;;5003802;28;20033;-83
2023/04/29 02:18:55;;;;;;;2.90;1.52;;;12.60;99.90;;;;;;5025791;28;20069;-83
2023/04/29 02:21:21;;;;;;;2.85;1.77;;;12.60;99.90;;;;;;4999924;28;20026;-83
2023/04/29 02:23:46;;;;;;;4.63;2.40;;;12.70;99.90;;;;;;5010573;28;20474;-83
2023/04/29 02:26:14;;;;;;;3.20;2.20;;;12.80;99.90;;;;;;4983177;28;20424;-83
2023/04/29 02:28:40;;;;;;;4.35;2.40;;;12.90;99.90;;;;;;5026318;28;20481;-83
2023/04/29 02:31:05;;;;;;;2.78;1.60;;;13.00;99.90;;;;;;5004093;28;20037;-83
2023/04/29 02:33:32;;;;;;;5.13;2.08;;;13.10;99.90;;;;;;5011495;28;20663;-83
2023/04/29 02:35:58;;;;;;;5.88;1.92;;;13.20;99.90;;;;;;4987264;28;20041;-86
2023/04/29 02:38:24;;;;;;;3.53;1.88;;;13.30;99.90;;;;;;5014229;28;20026;-83
2023/04/29 02:40:50;;;;;;;3.28;1.90;;;13.40;99.90;;;;;;5004047;28;20103;-83
2023/04/29 02:43:16;;;;;;;4.75;1.85;;;13.50;99.90;;;;;;5013149;28;20062;-83
2023/04/29 02:45:42;;;;;;;2.67;1.33;;;13.50;99.90;;;;;;5023437;28;20416;-83
2023/04/29 02:48:08;;;;;;;2.60;1.92;;;13.50;99.90;;;;;;5014036;28;20026;-83
2023/04/29 02:50:33;;;;;;;2.58;0.98;;;13.50;99.90;;;;;;5003115;28;20063;-83
2023/04/29 02:52:59;;;;;;;2.08;1.50;;;13.50;99.90;;;;;;5014202;28;20029;-84
2023/04/29 02:55:25;;;;;;;1.42;0.95;;;13.40;99.90;;;;;;5003714;28;20030;-84
2023/04/29 02:57:51;;;;;;;3.08;1.27;;;13.40;99.90;;;;;;5014034;28;20034;-83
2023/04/29 03:00:17;;;;;;;1.52;1.08;;;13.40;99.90;;;;;;5008448;28;20124;-83
2023/04/29 05:10:37;;;;;;;4.47;0.90;;;13.10;99.90;;;;;;5055800;23;20043;-82
2023/04/29 05:13:03;;;;;;;2.33;1.40;;;13.20;99.90;;;;;;4971194;28;20039;-82
2023/04/29 05:15:29;;;;;;;1.05;0.70;;;13.20;99.90;;;;;;4956861;28;20493;-83
2023/04/29 05:17:54;;;;;;;2.80;1.08;;;13.30;99.90;;;;;;4962347;28;20039;-83
2023/04/29 05:20:21;;;;;;;2.45;1.27;;;13.40;99.90;;;;;;4950232;28;20031;-83
2023/04/29 05:52:41;;;;;;;2.13;0.95;;;13.60;99.90;;;;;;5977300;23;20052;-82
2023/04/29 05:55:08;;;;;;;3.28;1.30;;;13.60;99.90;;;;;;4953847;28;20039;-82
2023/04/29 05:57:33;;;;;;;2.10;1.10;;;13.60;99.90;;;;;;4958916;28;20037;-82
2023/04/29 05:59:59;;;;;;;1.42;1.02;;;13.60;99.90;;;;;;4957057;28;20035;-82
2023/04/29 06:05:00;;;;;;;2.22;0.90;;;13.70;99.90;;;;;;5468341;23;20054;-82
2023/04/29 06:07:26;;;;;;;1.15;0.60;;;13.70;99.90;;;;;;4964900;28;20034;-81
2023/04/29 06:09:53;;;;;;;2.15;1.02;;;13.70;99.90;;;;;;4971985;28;20394;-81
2023/04/29 06:12:19;;;;;;;2.78;1.17;;;13.80;99.90;;;;;;4962701;28;20030;-81
2023/04/29 06:14:44;;;;;;;2.00;0.63;;;13.80;99.90;;;;;;4953703;28;20050;-81
2023/04/29 06:17:11;;;;;;;1.50;0.90;;;13.70;99.90;;;;;;4967088;28;20019;-81
2023/04/29 06:19:37;;;;;;;2.95;0.93;;;13.80;99.90;;;;;;4975800;28;20074;-77
2023/04/29 06:22:03;;;;;;;3.38;0.85;;;13.70;99.90;;;;;;4991780;28;20105;-81
2023/04/29 06:24:28;;;;;;;1.73;0.95;;;13.60;99.90;;;;;;4984522;28;20450;-82
2023/04/29 06:26:54;;;;;;;1.30;0.80;;;13.70;99.90;;;;;;4996565;28;20062;-84
2023/04/29 06:29:20;;;;;;;3.13;1.10;;;13.70;99.90;;;;;;4999623;28;20098;-85
2023/04/29 06:31:45;;;;;;;2.10;1.30;;;13.70;99.90;;;;;;4993817;28;20034;-84
2023/04/29 06:34:11;;;;;;;1.92;1.17;;;13.80;99.90;;;;;;4987388;28;20018;-82
2023/04/29 06:36:37;;;;;;;1.67;1.17;;;13.80;99.90;;;;;;4995421;28;20038;-83
2023/04/29 06:39:03;;;;;;;1.80;1.13;;;13.80;99.90;;;;;;4969132;28;20479;-83
2023/04/29 06:41:29;;;;;;;1.77;1.13;;;13.70;99.90;;;;;;4980919;28;20049;-82
2023/04/29 06:43:55;;;;;;;2.28;1.08;;;13.70;99.90;;;;;;4972511;28;20445;-79
2023/04/29 06:46:20;;;;;;;1.05;0.75;;;13.80;99.90;;;;;;4981531;28;20515;-81
2023/04/29 06:48:47;;;;;;;2.20;1.30;;;13.80;99.90;;;;;;4970303;28;20035;-84
2023/04/29 06:51:12;;;;;;;2.05;1.10;;;13.80;99.90;;;;;;4967290;28;20059;-82
2023/04/29 06:53:38;;;;;;;2.33;1.30;;;14.00;99.90;;;;;;4969163;28;20085;-82
2023/04/29 06:56:05;;;;;;;3.22;1.30;;;13.70;99.90;;;;;;4976335;28;20042;-77
2023/04/29 06:58:31;;;;;;;5.22;2.35;;;13.90;99.90;;;;;;4983306;28;20038;-76
2023/04/29 07:00:57;;;;;;;6.38;3.10;;;14.00;99.90;;;;;;4978982;28;20409;-77
2023/04/29 07:03:22;;;;;;;7.43;2.90;;;14.00;99.90;;;;;;4974509;28;20035;-77
2023/04/29 07:05:48;;;;;;;5.40;2.58;;;14.00;99.90;;;;;;4983549;28;20036;-77
2023/04/29 07:08:14;;;;;;;7.05;3.30;;;14.10;99.90;;;;;;4959127;28;20483;-76
2023/04/29 07:10:40;;;;;;;7.90;3.15;;;14.10;99.90;;;;;;4979377;28;20037;-76
2023/04/29 07:13:06;;;;;;;6.35;3.47;;;14.00;99.90;;;;;;4969049;28;20035;-76
2023/04/29 07:15:36;;;;;;;8.68;3.92;;;13.80;99.90;;;;;;4969839;28;20160;-76
2023/04/29 07:18:05;;;;;;;6.50;3.72;;;13.80;99.90;;;;;;4978834;28;20034;-77
2023/04/29 07:20:31;;;;;;;9.55;3.90;;;13.70;99.90;;;;;;4976577;28;20478;-76
2023/04/29 07:22:58;;;;;;;5.78;3.33;;;13.70;99.90;;;;;;4960570;28;20045;-77
2023/04/29 07:25:26;;;;;;;8.48;4.00;;;13.70;99.90;;;;;;4974685;28;20137;-77
2023/04/29 07:27:52;;;;;;;8.38;3.90;;;13.70;99.90;;;;;;4979343;28;20523;-77
2023/04/29 07:30:18;;;;;;;10.07;5.43;;;13.60;99.90;;;;;;4976132;28;20050;-77
2023/04/29 07:32:44;;;;;;;8.45;3.95;;;13.60;99.90;;;;;;4985489;28;20390;-77
2023/04/29 07:35:09;;;;;;;6.10;3.42;;;13.70;99.90;;;;;;4978762;28;20031;-77
2023/04/29 07:37:35;;;;;;;10.10;3.90;;;13.70;99.90;;;;;;4972229;28;20034;-77
2023/04/29 07:40:01;;;;;;;8.75;3.50;;;13.60;99.90;;;;;;4976413;28;20042;-77
2023/04/29 07:42:27;;;;;;;5.57;2.83;;;13.70;99.90;;;;;;4993612;28;20038;-77
2023/04/29 07:44:52;;;;;;;7.05;3.20;;;13.70;99.90;;;;;;4978335;28;20042;-77
2023/04/29 07:47:18;;;;;;;5.35;2.53;;;13.70;99.90;;;;;;4993105;28;20501;-76
2023/04/29 07:49:44;;;;;;;7.35;3.03;;;13.70;99.90;;;;;;4993091;28;20062;-76
2023/04/29 07:52:09;;;;;;;6.07;2.92;;;13.80;99.90;;;;;;4977336;28;20334;-76
2023/04/29 07:54:35;;;;;;;5.07;2.90;;;13.80;99.90;;;;;;4978199;28;20046;-76
2023/04/29 07:57:03;;;;;;;7.88;3.17;;;13.90;99.90;;;;;;4993988;23;20066;-72
2023/04/29 07:59:30;;;;;;;8.55;3.20;;;13.90;99.90;;;;;;4991265;28;20093;-72
2023/04/29 08:01:56;;;;;;;9.90;3.08;;;14.00;99.90;;;;;;4982988;28;20136;-72
2023/04/29 08:04:22;;;;;;;7.80;3.15;;;13.90;99.90;;;;;;4991848;28;20442;-72
2023/04/29 08:06:48;;;;;;;7.22;2.90;;;14.00;99.90;;;;;;4984369;28;20045;-72
2023/04/29 08:09:15;;;;;;;7.07;3.33;;;14.10;99.90;;;;;;4978821;28;20026;-72
2023/04/29 08:11:41;;;;;;;5.68;3.00;;;14.10;99.90;;;;;;4982774;28;20434;-72
2023/04/29 08:14:07;;;;;;;7.03;3.15;;;14.10;99.90;;;;;;4991939;28;20054;-73
2023/04/29 08:16:33;;;;;;;6.13;2.92;;;14.10;99.90;;;;;;4982535;28;20449;-72
2023/04/29 08:18:59;;;;;;;12.20;3.33;;;14.10;99.90;;;;;;4984000;28;20565;-72
2023/04/29 08:21:26;;;;;;;7.07;3.25;;;14.10;99.90;;;;;;4982996;28;20057;-73
2023/04/29 08:23:52;;;;;;;4.05;2.58;;;14.00;99.90;;;;;;4992687;28;20033;-73
2023/04/29 08:26:18;;;;;;;7.13;4.03;;;14.00;99.90;;;;;;4971528;28;20096;-73
2023/04/29 08:28:44;;;;;;;6.88;3.45;;;14.00;99.90;;;;;;4991771;28;20112;-73
2023/04/29 08:31:20;;;;;;;7.18;3.53;;;13.90;99.90;;;;;;4982835;28;20033;-73
2023/04/29 08:33:47;;;;;;;5.45;2.85;;;14.00;99.90;;;;;;4992546;28;20050;-73
2023/04/29 08:36:13;;;;;;;8.48;3.78;;;14.00;99.90;;;;;;4982533;28;20034;-73
2023/04/29 08:38:38;;;;;;;6.18;2.92;;;14.10;99.90;;;;;;4976876;28;20034;-73
2023/04/29 08:41:10;;;;;;;8.43;3.53;;;14.10;99.90;;;;;;4983127;28;20060;-74
2023/04/29 08:43:36;;;;;;;7.53;3.10;;;14.10;99.90;;;;;;4992405;28;20031;-73
2023/04/29 08:46:03;;;;;;;6.82;2.90;;;14.10;99.90;;;;;;4982627;28;20031;-73
2023/04/29 08:48:30;;;;;;;7.63;3.03;;;14.10;99.90;;;;;;4992108;28;20030;-73
2023/04/29 08:50:57;;;;;;;14.68;3.67;;;14.10;99.90;;;;;;4982540;28;20479;-73
2023/04/29 08:53:23;;;;;;;6.85;2.97;;;14.20;99.90;;;;;;4992340;28;20026;-73
2023/04/29 08:55:49;;;;;;;8.93;3.72;;;14.20;99.90;;;;;;4981241;28;20399;-73
2023/04/29 08:58:15;;;;;;;5.35;2.53;;;14.20;99.90;;;;;;4992046;28;20034;-73
2023/04/29 09:00:43;;;;;;;11.02;3.40;;;14.30;99.90;;;;;;4983175;28;20031;-73
2023/04/29 09:03:33;;;;;;;4.38;2.78;;;14.40;99.90;;;;;;4983950;28;20033;-73
2023/04/29 09:06:00;;;;;;;9.18;4.30;;;14.50;99.90;;;;;;4981013;28;20036;-72
2023/04/29 09:08:26;;;;;;;8.10;2.60;;;14.40;99.90;;;;;;4978033;28;20023;-72
2023/04/29 09:10:53;;;;;;;5.45;2.92;;;14.50;99.90;;;;;;4980428;28;20042;-72
2023/04/29 09:13:24;;;;;;;6.18;2.30;;;14.40;99.90;;;;;;4991866;28;20073;-72
2023/04/29 09:15:50;;;;;;;4.72;2.58;;;14.50;99.90;;;;;;4981978;28;20038;-72
2023/04/29 09:18:48;;;;;;;4.57;2.25;;;14.50;99.90;;;;;;4991549;28;20034;-73
2023/04/29 09:21:27;;;;;;;7.70;2.97;;;14.50;99.90;;;;;;4982190;28;20030;-73
2023/04/29 09:23:59;;;;;;;4.63;2.63;;;14.50;99.90;;;;;;4991563;28;20036;-73
2023/04/29 09:26:26;;;;;;;4.45;2.28;;;14.50;99.90;;;;;;4981422;28;20057;-72
2023/04/29 09:29:17;;;;;;;6.10;2.83;;;14.40;99.90;;;;;;5006623;28;20041;-73
2023/04/29 09:31:44;;;;;;;5.10;2.05;;;14.50;99.90;;;;;;4980757;28;20090;-73
2023/04/29 09:34:10;;;;;;;7.63;1.95;;;14.50;99.90;;;;;;4974572;28;20077;-72
2023/04/29 09:36:44;;;;;;;6.50;2.45;;;14.40;99.90;;;;;;4980130;28;20109;-72
2023/04/29 09:39:19;;;;;;;5.15;2.25;;;14.40;99.90;;;;;;4975115;28;20172;-72
2023/04/29 09:41:54;;;;;;;4.72;2.55;;;14.60;99.90;;;;;;4980189;28;20026;-73
2023/04/29 09:44:37;;;;;;;6.22;2.42;;;14.80;99.90;;;;;;4991378;28;20058;-73
2023/04/29 09:47:07;;;;;;;4.55;2.00;;;15.00;99.90;;;;;;4981458;28;20040;-73
2023/04/29 09:49:39;;;;;;;6.07;2.08;;;15.10;99.90;;;;;;4990110;28;20034;-72
2023/04/29 09:52:11;;;;;;;5.78;2.17;;;15.30;99.90;;;;;;4981457;28;20030;-72
2023/04/29 09:54:40;;;;;;;5.13;2.13;;;15.40;99.90;;;;;;4991431;28;20407;-72
2023/04/29 09:57:08;;;;;;;4.50;1.60;;;15.50;99.90;;;;;;4979761;28;20057;-72
2023/04/29 09:59:36;;;;;;;3.70;1.63;;;15.50;99.90;;;;;;4985697;28;20019;-72
2023/04/29 10:02:08;;;;;;;5.05;2.10;;;15.60;99.90;;;;;;4976579;28;20038;-72
2023/04/29 10:04:36;;;;;;;4.40;1.73;;;15.60;99.90;;;;;;4990154;28;20118;-72
2023/04/29 10:07:02;;;;;;;3.72;1.60;;;15.70;99.90;;;;;;4977911;28;20038;-73
2023/04/29 10:09:29;;;;;;;4.47;1.50;;;15.50;99.90;;;;;;4972234;28;20097;-73
2023/04/29 10:11:55;;;;;;;5.07;1.92;;;15.50;99.90;;;;;;4958753;28;20046;-73
2023/04/29 10:14:23;;;;;;;3.95;1.80;;;15.30;99.90;;;;;;4989883;28;20048;-72
2023/04/29 10:16:57;;;;;;;5.53;2.35;;;15.30;99.90;;;;;;4979217;28;20026;-72
2023/04/29 10:19:42;;;;;;;3.10;1.40;;;15.20;99.90;;;;;;4991180;28;20109;-72
2023/04/29 10:22:28;;;;;;;3.92;1.75;;;15.20;99.90;;;;;;4979838;28;20061;-72
2023/04/29 10:24:56;;;;;;;4.15;1.92;;;15.40;99.90;;;;;;4972519;28;20034;-73
2023/04/29 10:27:23;;;;;;;3.25;1.50;;;15.50;99.90;;;;;;4979563;28;20057;-72
2023/04/29 10:29:51;;;;;;;4.53;2.10;;;15.50;99.90;;;;;;4988066;28;20124;-72
2023/04/29 10:32:20;;;;;;;4.10;1.52;;;15.50;99.90;;;;;;4975732;28;20038;-70
2023/04/29 10:34:47;;;;;;;4.35;1.77;;;15.60;99.90;;;;;;4975753;28;20035;-74
2023/04/29 10:37:15;;;;;;;2.70;1.50;;;15.50;99.90;;;;;;4967917;28;20027;-71
2023/04/29 10:40:03;;;;;;;3.88;1.65;;;15.70;99.90;;;;;;4962985;28;20035;-71
2023/04/29 10:42:45;;;;;;;3.97;1.90;;;15.70;99.90;;;;;;4968575;28;20035;-72
2023/04/29 10:45:34;;;;;;;10.43;2.60;;;15.90;99.90;;;;;;4965732;28;20031;-73
2023/04/29 10:48:09;;;;;;;3.92;1.90;;;16.10;99.90;;;;;;4968667;28;20042;-73
2023/04/29 10:50:48;;;;;;;7.97;2.28;;;16.30;99.90;;;;;;4974323;28;20027;-73
2023/04/29 10:53:18;;;;;;;10.48;2.13;;;16.40;99.90;;;;;;4969318;28;20035;-72
2023/04/29 10:56:02;;;;;;;6.30;1.98;;;16.50;99.90;;;;;;4967570;28;20035;-73
2023/04/29 10:58:45;;;;;;;3.58;1.67;;;16.70;99.90;;;;;;4987755;28;20034;-73
2023/04/29 11:01:16;;;;;;;3.17;1.92;;;16.70;99.90;;;;;;4967690;28;20201;-70
2023/04/29 11:03:58;;;;;;;5.65;2.35;;;16.80;99.90;;;;;;4972115;28;20038;-69
2023/04/29 11:06:46;;;;;;;3.65;1.88;;;16.60;99.90;;;;;;4974488;28;20046;-68
2023/04/29 11:09:35;;;;;;;4.13;2.17;;;16.60;99.90;;;;;;4972717;28;20122;-69
2023/04/29 11:12:06;;;;;;;5.22;1.98;;;16.60;99.90;;;;;;4979395;28;20228;-70
2023/04/29 11:14:42;;;;;;;2.45;1.33;;;16.40;99.90;;;;;;4970698;28;20583;-69
2023/04/29 11:17:16;;;;;;;3.38;1.60;;;16.20;99.90;;;;;;4982274;28;20173;-70
2023/04/29 11:19:45;;;;;;;5.95;2.03;;;15.80;99.90;;;;;;4985150;28;20038;-69
2023/04/29 11:22:26;;;;;;;5.75;2.05;;;15.60;99.90;;;;;;4975391;28;20034;-71
2023/04/29 11:25:08;;;;;;;4.78;1.55;;;15.50;99.90;;;;;;4963995;28;20054;-72
2023/04/29 11:27:40;;;;;;;3.38;1.40;;;15.50;99.90;;;;;;4984384;28;20037;-71
2023/04/29 11:30:07;;;;;;;5.55;1.65;;;15.40;99.90;;;;;;4978609;28;20058;-69
2023/04/29 11:32:44;;;;;;;3.42;1.55;;;15.60;99.90;;;;;;4974460;28;20100;-67
2023/04/29 11:35:16;;;;;;;3.65;1.90;;;15.60;99.90;;;;;;4973632;28;20514;-70
2023/04/29 11:37:44;;;;;;;4.60;2.17;;;15.60;99.90;;;;;;4978252;28;20096;-74
2023/04/29 11:40:12;;;;;;;3.05;1.50;;;15.60;99.90;;;;;;4954969;28;20035;-74
2023/04/29 11:42:44;;;;;;;3.45;1.90;;;15.50;99.90;;;;;;4985168;28;20030;-74
2023/04/29 11:45:11;;;;;;;2.72;1.13;;;15.50;99.90;;;;;;4954801;28;20171;-74
2023/04/29 11:47:37;;;;;;;7.90;1.63;;;15.50;99.90;;;;;;4987637;28;20018;-76
2023/04/29 11:50:08;;;;;;;1.88;1.23;;;15.50;99.90;;;;;;4992323;28;20027;-74
2023/04/29 11:52:45;;;;;;;4.30;1.88;;;15.60;99.90;;;;;;4967294;28;20077;-72
2023/04/29 11:55:11;;;;;;;2.90;1.40;;;15.80;99.90;;;;;;4954965;28;20073;-77
2023/04/29 11:57:40;;;;;;;3.95;1.23;;;16.10;99.90;;;;;;4987663;28;20132;-75
2023/04/29 12:00:13;;;;;;;3.20;1.48;;;16.30;99.90;;;;;;4991697;28;20574;-73
2023/04/29 12:02:44;;;;;;;2.95;1.15;;;16.20;99.90;;;;;;4966972;28;20125;-74
2023/04/29 12:05:11;;;;;;;2.58;1.40;;;16.10;99.90;;;;;;4962976;28;20027;-74
2023/04/29 12:07:38;;;;;;;1.67;1.05;;;15.80;99.90;;;;;;4967228;28;20122;-72
2023/04/29 12:10:09;;;;;;;2.17;0.63;;;16.00;99.90;;;;;;4975796;28;20037;-74
2023/04/29 12:12:36;;;;;;;3.13;1.10;;;16.20;99.90;;;;;;4967788;28;20039;-75
2023/04/29 12:15:04;;;;;;;3.30;1.15;;;16.50;99.90;;;;;;4970785;28;20041;-71
2023/04/29 12:17:30;;;;;;;2.67;1.20;;;16.60;99.90;;;;;;4963764;28;20038;-78
2023/04/29 12:19:56;;;;;;;2.38;1.45;;;16.80;99.90;;;;;;4956395;28;20027;-74
2023/04/29 12:22:22;;;;;;;3.28;1.38;;;16.90;99.90;;;;;;4979926;28;20046;-74
2023/04/29 12:24:49;;;;;;;2.65;1.20;;;17.00;99.90;;;;;;4992972;28;20034;-77
2023/04/29 12:27:15;;;;;;;3.67;1.52;;;16.90;99.90;;;;;;4977137;28;20413;-67
2023/04/29 12:29:41;;;;;;;3.38;1.55;;;17.10;99.90;;;;;;4965695;28;20039;-73
2023/04/29 12:32:11;;;;;;;3.20;1.30;;;17.00;99.90;;;;;;4976011;28;20034;-75
2023/04/29 12:34:38;;;;;;;2.47;0.85;;;17.10;99.90;;;;;;4991820;28;20040;-73
2023/04/29 12:37:04;;;;;;;1.65;0.73;;;17.00;99.90;;;;;;4978670;28;20034;-71
2023/04/29 12:39:30;;;;;;;3.28;1.67;;;16.90;99.90;;;;;;4982605;28;20034;-71
2023/04/29 12:42:01;;;;;;;2.60;1.23;;;17.10;99.90;;;;;;4982010;28;20030;-72
2023/04/29 12:44:37;;;;;;;3.42;1.50;;;17.10;99.90;;;;;;4978056;28;20046;-75
2023/04/29 12:47:10;;;;;;;2.13;1.10;;;16.90;99.90;;;;;;4973405;28;20026;-74
2023/04/29 12:49:37;;;;;;;4.32;1.23;;;16.90;99.90;;;;;;4973518;28;20037;-73
2023/04/29 12:52:03;;;;;;;4.78;1.20;;;16.80;99.90;;;;;;4974872;28;20049;-69
2023/04/29 12:54:29;;;;;;;4.35;1.50;;;17.20;99.90;;;;;;4983812;28;20454;-70
2023/04/29 12:56:56;;;;;;;2.10;1.00;;;17.30;99.90;;;;;;4971871;28;20027;-66
2023/04/29 12:59:21;;;;;;;2.03;0.90;;;17.30;99.90;;;;;;4980954;28;20030;-72
2023/04/29 13:01:47;;;;;;;2.70;1.23;;;17.00;99.90;;;;;;4977597;28;20516;-66
2023/04/29 13:04:13;;;;;;;2.50;1.05;;;17.10;99.90;;;;;;4972468;28;20034;-72
2023/04/29 13:06:39;;;;;;;1.70;0.90;;;17.10;99.90;;;;;;4978445;28;20094;-72
2023/04/29 13:09:10;;;;;;;2.65;1.58;;;17.10;99.90;;;;;;4976630;28;20066;-74
2023/04/29 13:11:38;;;;;;;1.60;0.90;;;17.10;99.90;;;;;;4974362;28;20434;-74
2023/04/29 13:14:06;;;;;;;1.73;0.80;;;17.20;99.90;;;;;;4980906;28;20043;-76
2023/04/29 13:16:33;;;;;;;1.52;0.80;;;17.20;99.90;;;;;;4974080;28;20112;-69
2023/04/29 13:19:00;;;;;;;3.58;1.50;;;17.30;99.90;;;;;;4976854;28;20031;-80
2023/04/29 13:21:27;;;;;;;4.68;1.27;;;17.40;99.90;;;;;;4969006;28;20092;-75
2023/04/29 13:23:53;;;;;;;4.07;1.17;;;17.50;99.90;;;;;;4967556;28;20502;-77
2023/04/29 13:26:19;;;;;;;2.33;1.20;;;17.20;99.90;;;;;;4970243;28;20041;-72
2023/04/29 13:28:45;;;;;;;3.35;1.30;;;17.10;99.90;;;;;;4972737;28;20035;-75
2023/04/29 13:31:11;;;;;;;3.20;1.05;;;16.90;99.90;;;;;;4979123;28;20132;-74
2023/04/29 13:33:37;;;;;;;1.88;0.98;;;16.80;99.90;;;;;;4979039;28;20483;-73
2023/04/29 13:36:03;;;;;;;2.97;1.42;;;16.50;99.90;;;;;;4961676;28;20146;-75
2023/04/29 13:38:29;;;;;;;2.85;1.42;;;16.50;99.90;;;;;;4984207;28;20058;-74
2023/04/29 13:40:55;;;;;;;2.92;1.33;;;16.40;99.90;;;;;;4983381;28;20146;-74
2023/04/29 13:43:21;;;;;;;2.40;1.02;;;16.30;99.90;;;;;;4990862;28;20122;-73
2023/04/29 13:45:47;;;;;;;1.38;0.90;;;16.40;99.90;;;;;;4984519;28;20121;-72
2023/04/29 13:48:12;;;;;;;2.15;1.15;;;16.30;99.90;;;;;;4991297;28;20030;-73
2023/04/29 13:50:40;;;;;;;3.05;1.60;;;16.40;99.90;;;;;;4984600;28;20560;-73
2023/04/29 13:53:06;;;;;;;1.92;1.08;;;16.50;99.90;;;;;;4991244;28;20022;-73
2023/04/29 13:55:34;;;;;;;3.20;1.45;;;16.40;99.90;;;;;;4998448;23;20038;-76
2023/04/29 13:58:00;;;;;;;3.72;1.48;;;16.50;99.90;;;;;;4983065;28;20390;-75
2023/04/29 14:00:26;;;;;;;2.30;1.10;;;16.60;99.90;;;;;;4970707;28;20545;-75
2023/04/29 14:02:52;;;;;;;3.53;1.52;;;16.70;99.90;;;;;;4987162;28;20038;-75
2023/04/29 14:05:18;;;;;;;3.53;1.48;;;16.70;99.90;;;;;;4991450;28;20092;-74
2023/04/29 14:07:44;;;;;;;3.05;1.67;;;16.60;99.90;;;;;;4980281;28;20046;-76
2023/04/29 14:10:10;;;;;;;2.35;1.33;;;16.70;99.90;;;;;;4990447;28;20034;-76
2023/04/29 14:12:36;;;;;;;2.90;1.40;;;16.90;99.90;;;;;;4983163;28;20038;-76
2023/04/29 14:15:02;;;;;;;1.50;0.95;;;17.00;99.90;;;;;;4991614;28;20038;-74
2023/04/29 14:17:28;;;;;;;2.83;1.40;;;16.80;99.90;;;;;;4972982;28;20027;-76
2023/04/29 14:19:53;;;;;;;3.20;1.48;;;16.70;99.90;;;;;;4987013;28;20031;-76
2023/04/29 14:22:20;;;;;;;4.93;1.50;;;16.40;99.90;;;;;;4983067;28;20114;-77
2023/04/29 14:24:45;;;;;;;2.72;1.20;;;16.40;99.90;;;;;;4992910;28;20038;-77
2023/04/29 14:27:11;;;;;;;2.85;1.20;;;16.40;99.90;;;;;;4989471;28;20101;-78
2023/04/29 14:29:37;;;;;;;2.28;1.27;;;16.30;99.90;;;;;;4995400;28;20038;-78
2023/04/29 14:32:03;;;;;;;1.92;1.30;;;16.40;99.90;;;;;;4989676;28;20133;-77
2023/04/29 14:34:29;;;;;;;2.35;1.10;;;16.40;99.90;;;;;;4995210;28;20022;-78
2023/04/29 14:36:57;;;;;;;2.45;1.30;;;16.30;99.90;;;;;;4988599;28;20137;-77
2023/04/29 14:39:25;;;;;;;2.25;1.40;;;16.40;99.90;;;;;;4989186;28;20038;-75
2023/04/29 14:41:51;;;;;;;3.15;1.63;;;16.50;99.90;;;;;;4973530;28;20067;-77
2023/04/29 14:44:17;;;;;;;2.72;1.27;;;16.60;99.90;;;;;;4995389;28;20038;-77
2023/04/29 14:46:43;;;;;;;3.80;1.75;;;16.90;99.90;;;;;;4990894;28;20038;-75
2023/04/29 14:49:08;;;;;;;3.10;1.80;;;17.50;99.90;;;;;;4994972;28;20026;-74
2023/04/29 14:51:34;;;;;;;1.67;1.20;;;18.00;99.90;;;;;;5004133;28;20030;-75
2023/04/29 14:54:00;;;;;;;2.85;1.35;;;18.70;99.90;;;;;;4994907;28;20065;-77
2023/04/29 14:56:26;;;;;;;3.22;1.63;;;19.10;99.90;;;;;;4988950;28;20081;-76
2023/04/29 14:58:52;;;;;;;2.95;1.45;;;20.10;98.50;;;;;;4994934;28;20085;-77
2023/04/29 15:01:18;;;;;;;2.72;1.38;;;20.00;97.10;;;;;;4980550;28;20475;-76
2023/04/29 15:03:43;;;;;;;4.88;1.27;;;20.00;95.60;;;;;;4974768;28;20062;-77
2023/04/29 15:06:09;;;;;;;2.22;1.08;;;19.70;95.90;;;;;;4964771;28;20486;-79
2023/04/29 15:08:37;;;;;;;1.63;0.98;;;19.40;96.40;;;;;;4975065;28;20061;-78
2023/04/29 15:11:03;;;;;;;2.63;1.58;;;19.20;96.00;;;;;;4972718;28;20115;-77
2023/04/29 15:13:28;;;;;;;2.63;1.30;;;18.50;98.30;;;;;;4983721;28;20142;-76
2023/04/29 15:15:54;;;;;;;2.13;1.20;;;18.50;97.80;;;;;;4980124;28;20141;-78
2023/04/29 15:18:22;;;;;;;2.03;1.05;;;18.90;97.50;;;;;;4976246;28;20385;-76
2023/04/29 15:20:49;;;;;;;3.25;1.48;;;19.00;97.30;;;;;;4984988;28;20562;-66
2023/04/29 15:23:15;;;;;;;2.30;1.20;;;18.90;97.70;;;;;;4978300;28;20038;-76
2023/04/29 15:25:41;;;;;;;3.60;1.77;;;18.70;98.10;;;;;;4973351;28;20089;-78
2023/04/29 15:28:07;;;;;;;4.15;1.45;;;18.20;99.40;;;;;;4986544;28;20030;-76
2023/04/29 15:30:32;;;;;;;3.67;1.65;;;17.80;99.90;;;;;;4964863;28;20503;-78
2023/04/29 15:32:58;;;;;;;3.70;1.58;;;17.50;99.90;;;;;;4973527;28;20037;-76